sensor_id;sensor_type;location;lat;lon;timestamp;P1;durP1;ratioP1;P2;durP2;ratioP2
76593;SDS011;65482;50.240;14.302;2023-05-16T00:20:16;12.30;;;9.85;;
76593;SDS011;65482;50.240;14.302;2023-05-16T00:23:10;13.68;;;9.50;;
76593;SDS011;65482;50.240;14.302;2023-05-16T00:26:13;11.20;;;9.37;;
76593;SDS011;65482;50.240;14.302;2023-05-16T00:45:29;11.43;;;8.85;;
76593;SDS011;65482;50.240;14.302;2023-05-16T00:48:18;12.10;;;9.45;;
76593;SDS011;65482;50.240;14.302;2023-05-16T00:54:49;11.40;;;9.07;;
76593;SDS011;65482;50.240;14.302;2023-05-16T00:57:46;13.75;;;9.90;;
76593;SDS011;65482;50.240;14.302;2023-05-16T01:00:55;13.38;;;9.82;;
76593;SDS011;65482;50.240;14.302;2023-05-16T01:03:51;16.90;;;9.82;;
76593;SDS011;65482;50.240;14.302;2023-05-16T01:06:59;13.75;;;9.48;;
76593;SDS011;65482;50.240;14.302;2023-05-16T01:10:06;10.88;;;9.40;;
76593;SDS011;65482;50.240;14.302;2023-05-16T01:16:08;13.13;;;10.07;;
76593;SDS011;65482;50.240;14.302;2023-05-16T01:25:50;11.75;;;9.00;;
76593;SDS011;65482;50.240;14.302;2023-05-16T01:28:47;11.55;;;8.82;;
76593;SDS011;65482;50.240;14.302;2023-05-16T01:31:34;13.80;;;9.77;;
76593;SDS011;65482;50.240;14.302;2023-05-16T01:34:29;11.77;;;9.95;;
76593;SDS011;65482;50.240;14.302;2023-05-16T01:44:04;16.58;;;10.40;;
76593;SDS011;65482;50.240;14.302;2023-05-16T01:46:37;12.68;;;10.35;;
76593;SDS011;65482;50.240;14.302;2023-05-16T01:49:19;15.82;;;10.20;;
76593;SDS011;65482;50.240;14.302;2023-05-16T01:56:05;13.25;;;9.77;;
76593;SDS011;65482;50.240;14.302;2023-05-16T01:59:02;13.98;;;9.93;;
76593;SDS011;65482;50.240;14.302;2023-05-16T02:16:26;12.43;;;9.95;;
76593;SDS011;65482;50.240;14.302;2023-05-16T02:19:09;14.27;;;10.02;;
76593;SDS011;65482;50.240;14.302;2023-05-16T02:25:54;11.73;;;9.32;;
76593;SDS011;65482;50.240;14.302;2023-05-16T02:29:31;16.70;;;10.60;;
76593;SDS011;65482;50.240;14.302;2023-05-16T02:32:24;18.38;;;10.32;;
76593;SDS011;65482;50.240;14.302;2023-05-16T02:35:15;13.45;;;10.40;;
76593;SDS011;65482;50.240;14.302;2023-05-16T02:38:08;13.27;;;10.77;;
76593;SDS011;65482;50.240;14.302;2023-05-16T02:40:59;13.10;;;10.73;;
76593;SDS011;65482;50.240;14.302;2023-05-16T02:43:37;15.32;;;10.77;;
76593;SDS011;65482;50.240;14.302;2023-05-16T02:46:22;13.77;;;10.70;;
76593;SDS011;65482;50.240;14.302;2023-05-16T02:48:51;15.52;;;11.00;;
76593;SDS011;65482;50.240;14.302;2023-05-16T02:51:31;15.88;;;11.82;;
76593;SDS011;65482;50.240;14.302;2023-05-16T02:53:59;14.80;;;11.57;;
76593;SDS011;65482;50.240;14.302;2023-05-16T02:56:34;14.70;;;11.05;;
76593;SDS011;65482;50.240;14.302;2023-05-16T02:59:02;13.75;;;11.23;;
76593;SDS011;65482;50.240;14.302;2023-05-16T03:01:31;14.32;;;11.30;;
76593;SDS011;65482;50.240;14.302;2023-05-16T03:04:00;20.63;;;12.30;;
76593;SDS011;65482;50.240;14.302;2023-05-16T03:06:33;16.83;;;11.63;;
76593;SDS011;65482;50.240;14.302;2023-05-16T03:09:06;19.05;;;12.43;;
76593;SDS011;65482;50.240;14.302;2023-05-16T03:11:52;17.20;;;11.57;;
76593;SDS011;65482;50.240;14.302;2023-05-16T03:14:23;14.38;;;11.13;;
76593;SDS011;65482;50.240;14.302;2023-05-16T03:16:54;14.75;;;11.73;;
76593;SDS011;65482;50.240;14.302;2023-05-16T03:19:32;16.13;;;11.55;;
76593;SDS011;65482;50.240;14.302;2023-05-16T03:21:59;15.85;;;11.70;;
76593;SDS011;65482;50.240;14.302;2023-05-16T03:24:43;17.25;;;11.85;;
76593;SDS011;65482;50.240;14.302;2023-05-16T03:27:26;14.57;;;11.82;;
76593;SDS011;65482;50.240;14.302;2023-05-16T03:30:04;16.40;;;12.02;;
76593;SDS011;65482;50.240;14.302;2023-05-16T03:32:33;14.35;;;11.50;;
76593;SDS011;65482;50.240;14.302;2023-05-16T03:35:20;27.05;;;12.65;;
76593;SDS011;65482;50.240;14.302;2023-05-16T03:37:50;19.85;;;12.40;;
76593;SDS011;65482;50.240;14.302;2023-05-16T03:40:16;20.33;;;12.30;;
76593;SDS011;65482;50.240;14.302;2023-05-16T03:42:57;19.08;;;11.80;;
76593;SDS011;65482;50.240;14.302;2023-05-16T03:45:37;14.80;;;11.32;;
76593;SDS011;65482;50.240;14.302;2023-05-16T03:48:28;21.05;;;12.05;;
76593;SDS011;65482;50.240;14.302;2023-05-16T03:51:25;14.35;;;11.13;;
76593;SDS011;65482;50.240;14.302;2023-05-16T03:54:14;17.85;;;12.00;;
76593;SDS011;65482;50.240;14.302;2023-05-16T03:56:53;18.47;;;11.30;;
76593;SDS011;65482;50.240;14.302;2023-05-16T03:59:27;14.50;;;10.80;;
76593;SDS011;65482;50.240;14.302;2023-05-16T04:02:00;14.23;;;11.33;;
76593;SDS011;65482;50.240;14.302;2023-05-16T04:04:34;16.55;;;10.68;;
76593;SDS011;65482;50.240;14.302;2023-05-16T04:07:03;13.88;;;10.75;;
76593;SDS011;65482;50.240;14.302;2023-05-16T04:09:53;13.40;;;11.00;;
76593;SDS011;65482;50.240;14.302;2023-05-16T04:12:39;17.10;;;11.00;;
76593;SDS011;65482;50.240;14.302;2023-05-16T04:15:27;16.13;;;11.18;;
76593;SDS011;65482;50.240;14.302;2023-05-16T04:18:12;15.75;;;11.40;;
76593;SDS011;65482;50.240;14.302;2023-05-16T04:21:05;17.27;;;11.15;;
76593;SDS011;65482;50.240;14.302;2023-05-16T04:23:42;15.90;;;10.43;;
76593;SDS011;65482;50.240;14.302;2023-05-16T04:27:01;26.13;;;11.60;;
76593;SDS011;65482;50.240;14.302;2023-05-16T04:29:40;14.93;;;11.07;;
76593;SDS011;65482;50.240;14.302;2023-05-16T04:32:23;15.02;;;11.40;;
76593;SDS011;65482;50.240;14.302;2023-05-16T04:35:15;15.60;;;10.38;;
76593;SDS011;65482;50.240;14.302;2023-05-16T04:37:47;14.75;;;10.82;;
76593;SDS011;65482;50.240;14.302;2023-05-16T04:40:31;13.27;;;10.77;;
76593;SDS011;65482;50.240;14.302;2023-05-16T04:43:12;16.45;;;10.98;;
76593;SDS011;65482;50.240;14.302;2023-05-16T04:45:39;12.95;;;10.85;;
76593;SDS011;65482;50.240;14.302;2023-05-16T04:48:13;15.02;;;11.05;;
76593;SDS011;65482;50.240;14.302;2023-05-16T04:50:45;13.30;;;10.57;;
76593;SDS011;65482;50.240;14.302;2023-05-16T04:53:22;12.13;;;10.20;;
76593;SDS011;65482;50.240;14.302;2023-05-16T04:55:58;11.68;;;9.98;;
76593;SDS011;65482;50.240;14.302;2023-05-16T04:58:42;11.20;;;10.10;;
76593;SDS011;65482;50.240;14.302;2023-05-16T05:01:44;15.52;;;10.20;;
76593;SDS011;65482;50.240;14.302;2023-05-16T05:04:16;13.82;;;10.13;;
76593;SDS011;65482;50.240;14.302;2023-05-16T05:07:04;14.55;;;9.57;;
76593;SDS011;65482;50.240;14.302;2023-05-16T05:09:46;12.60;;;9.65;;
76593;SDS011;65482;50.240;14.302;2023-05-16T05:16:04;13.18;;;9.73;;
76593;SDS011;65482;50.240;14.302;2023-05-16T05:18:57;15.95;;;9.90;;
76593;SDS011;65482;50.240;14.302;2023-05-16T05:21:31;11.70;;;9.98;;
76593;SDS011;65482;50.240;14.302;2023-05-16T05:24:12;13.55;;;9.98;;
76593;SDS011;65482;50.240;14.302;2023-05-16T05:26:57;11.00;;;9.70;;
76593;SDS011;65482;50.240;14.302;2023-05-16T05:29:29;13.00;;;9.55;;
76593;SDS011;65482;50.240;14.302;2023-05-16T06:10:20;11.95;;;10.05;;
76593;SDS011;65482;50.240;14.302;2023-05-16T06:21:00;14.38;;;10.00;;
76593;SDS011;65482;50.240;14.302;2023-05-16T06:27:14;13.02;;;9.75;;
76593;SDS011;65482;50.240;14.302;2023-05-16T06:29:52;14.15;;;10.27;;
76593;SDS011;65482;50.240;14.302;2023-05-16T06:36:32;13.27;;;9.55;;
76593;SDS011;65482;50.240;14.302;2023-05-16T06:39:03;17.08;;;10.88;;
76593;SDS011;65482;50.240;14.302;2023-05-16T06:41:29;13.35;;;10.40;;
76593;SDS011;65482;50.240;14.302;2023-05-16T06:43:58;21.20;;;10.30;;
76593;SDS011;65482;50.240;14.302;2023-05-16T06:46:28;12.23;;;9.70;;
76593;SDS011;65482;50.240;14.302;2023-05-16T06:59:07;15.93;;;9.77;;
76593;SDS011;65482;50.240;14.302;2023-05-16T07:17:29;12.00;;;9.05;;
76593;SDS011;65482;50.240;14.302;2023-05-16T07:21:30;9.27;;;8.13;;
76593;SDS011;65482;50.240;14.302;2023-05-16T08:19:22;10.27;;;7.32;;
76593;SDS011;65482;50.240;14.302;2023-05-16T08:22:12;16.30;;;6.63;;
76593;SDS011;65482;50.240;14.302;2023-05-16T08:30:24;12.97;;;8.93;;
76593;SDS011;65482;50.240;14.302;2023-05-16T08:33:27;12.00;;;10.50;;
76593;SDS011;65482;50.240;14.302;2023-05-16T08:36:10;13.50;;;9.25;;
76593;SDS011;65482;50.240;14.302;2023-05-16T10:00:06;16.98;;;14.18;;
76593;SDS011;65482;50.240;14.302;2023-05-16T10:03:54;16.27;;;14.48;;
76593;SDS011;65482;50.240;14.302;2023-05-16T10:15:25;17.75;;;15.18;;
76593;SDS011;65482;50.240;14.302;2023-05-16T10:18:49;16.00;;;14.00;;
76593;SDS011;65482;50.240;14.302;2023-05-16T10:22:34;18.38;;;14.32;;
76593;SDS011;65482;50.240;14.302;2023-05-16T10:33:19;19.52;;;16.17;;
76593;SDS011;65482;50.240;14.302;2023-05-16T10:36:49;18.92;;;15.57;;
76593;SDS011;65482;50.240;14.302;2023-05-16T10:39:50;17.67;;;15.00;;
76593;SDS011;65482;50.240;14.302;2023-05-16T10:46:49;18.83;;;14.05;;
76593;SDS011;65482;50.240;14.302;2023-05-16T10:49:32;18.08;;;14.57;;
76593;SDS011;65482;50.240;14.302;2023-05-16T10:59:39;21.67;;;15.95;;
76593;SDS011;65482;50.240;14.302;2023-05-16T11:10:21;19.35;;;15.45;;
76593;SDS011;65482;50.240;14.302;2023-05-16T11:13:55;18.13;;;15.82;;
76593;SDS011;65482;50.240;14.302;2023-05-16T11:17:10;21.33;;;16.15;;
76593;SDS011;65482;50.240;14.302;2023-05-16T11:22:39;20.77;;;16.75;;
76593;SDS011;65482;50.240;14.302;2023-05-16T11:25:06;23.52;;;17.85;;
76593;SDS011;65482;50.240;14.302;2023-05-16T11:30:10;23.13;;;17.33;;
76593;SDS011;65482;50.240;14.302;2023-05-16T11:32:37;25.95;;;17.88;;
76593;SDS011;65482;50.240;14.302;2023-05-16T11:35:08;23.00;;;17.00;;
76593;SDS011;65482;50.240;14.302;2023-05-16T11:37:56;22.25;;;16.88;;
76593;SDS011;65482;50.240;14.302;2023-05-16T11:40:22;24.90;;;16.55;;
76593;SDS011;65482;50.240;14.302;2023-05-16T11:42:50;22.40;;;16.95;;
76593;SDS011;65482;50.240;14.302;2023-05-16T11:45:18;23.23;;;17.05;;
76593;SDS011;65482;50.240;14.302;2023-05-16T11:47:51;23.13;;;18.83;;
76593;SDS011;65482;50.240;14.302;2023-05-16T11:50:21;22.13;;;17.23;;
76593;SDS011;65482;50.240;14.302;2023-05-16T11:52:50;23.63;;;17.40;;
76593;SDS011;65482;50.240;14.302;2023-05-16T11:55:33;22.40;;;17.05;;
76593;SDS011;65482;50.240;14.302;2023-05-16T11:58:00;22.77;;;16.50;;
76593;SDS011;65482;50.240;14.302;2023-05-16T12:00:29;23.25;;;16.90;;
76593;SDS011;65482;50.240;14.302;2023-05-16T12:02:59;24.42;;;16.13;;
76593;SDS011;65482;50.240;14.302;2023-05-16T12:05:27;21.70;;;16.48;;
76593;SDS011;65482;50.240;14.302;2023-05-16T12:07:55;24.65;;;17.67;;
76593;SDS011;65482;50.240;14.302;2023-05-16T12:10:44;23.20;;;19.35;;
76593;SDS011;65482;50.240;14.302;2023-05-16T12:13:10;23.40;;;18.92;;
76593;SDS011;65482;50.240;14.302;2023-05-16T12:15:36;22.45;;;17.65;;
76593;SDS011;65482;50.240;14.302;2023-05-16T12:18:01;20.30;;;15.90;;
76593;SDS011;65482;50.240;14.302;2023-05-16T12:20:27;18.05;;;14.35;;
76593;SDS011;65482;50.240;14.302;2023-05-16T12:22:56;16.27;;;12.07;;
76593;SDS011;65482;50.240;14.302;2023-05-16T12:25:23;15.82;;;11.80;;
76593;SDS011;65482;50.240;14.302;2023-05-16T12:27:53;16.42;;;13.43;;
76593;SDS011;65482;50.240;14.302;2023-05-16T12:30:25;16.75;;;12.05;;
76593;SDS011;65482;50.240;14.302;2023-05-16T12:32:55;16.23;;;12.95;;
76593;SDS011;65482;50.240;14.302;2023-05-16T12:35:24;17.90;;;12.50;;
76593;SDS011;65482;50.240;14.302;2023-05-16T12:38:07;15.85;;;13.05;;
76593;SDS011;65482;50.240;14.302;2023-05-16T12:41:03;19.87;;;13.80;;
76593;SDS011;65482;50.240;14.302;2023-05-16T12:48:17;17.23;;;13.07;;
76593;SDS011;65482;50.240;14.302;2023-05-16T12:51:15;18.13;;;13.18;;
76593;SDS011;65482;50.240;14.302;2023-05-16T12:54:09;16.90;;;12.70;;
76593;SDS011;65482;50.240;14.302;2023-05-16T13:00:38;19.33;;;13.35;;
76593;SDS011;65482;50.240;14.302;2023-05-16T13:03:59;18.15;;;12.60;;
76593;SDS011;65482;50.240;14.302;2023-05-16T13:06:46;15.15;;;11.55;;
76593;SDS011;65482;50.240;14.302;2023-05-16T13:09:12;24.27;;;13.07;;
76593;SDS011;65482;50.240;14.302;2023-05-16T13:12:15;19.10;;;12.52;;
76593;SDS011;65482;50.240;14.302;2023-05-16T13:15:21;16.83;;;12.43;;
76593;SDS011;65482;50.240;14.302;2023-05-16T13:18:20;18.98;;;12.52;;
76593;SDS011;65482;50.240;14.302;2023-05-16T13:20:56;15.98;;;12.55;;
76593;SDS011;65482;50.240;14.302;2023-05-16T13:24:05;15.45;;;11.32;;
76593;SDS011;65482;50.240;14.302;2023-05-16T13:26:36;24.50;;;11.80;;
76593;SDS011;65482;50.240;14.302;2023-05-16T13:29:17;15.63;;;11.95;;
76593;SDS011;65482;50.240;14.302;2023-05-16T13:35:27;15.68;;;11.23;;
76593;SDS011;65482;50.240;14.302;2023-05-16T13:41:40;14.15;;;10.57;;
76593;SDS011;65482;50.240;14.302;2023-05-16T13:45:06;12.32;;;9.98;;
76593;SDS011;65482;50.240;14.302;2023-05-16T13:48:05;15.73;;;10.20;;
76593;SDS011;65482;50.240;14.302;2023-05-16T13:50:32;13.02;;;9.95;;
76593;SDS011;65482;50.240;14.302;2023-05-16T13:52:57;14.00;;;10.07;;
76593;SDS011;65482;50.240;14.302;2023-05-16T14:00:17;12.98;;;9.13;;
76593;SDS011;65482;50.240;14.302;2023-05-16T14:03:09;11.43;;;8.88;;
76593;SDS011;65482;50.240;14.302;2023-05-16T14:06:12;15.82;;;8.75;;
76593;SDS011;65482;50.240;14.302;2023-05-16T14:13:18;13.00;;;8.18;;
76593;SDS011;65482;50.240;14.302;2023-05-16T14:28:39;11.70;;;7.97;;
76593;SDS011;65482;50.240;14.302;2023-05-16T14:31:08;17.23;;;8.10;;
76593;SDS011;65482;50.240;14.302;2023-05-16T14:33:42;10.07;;;7.90;;
76593;SDS011;65482;50.240;14.302;2023-05-16T14:36:08;12.30;;;7.90;;
76593;SDS011;65482;50.240;14.302;2023-05-16T14:38:34;14.85;;;8.77;;
76593;SDS011;65482;50.240;14.302;2023-05-16T14:41:00;20.98;;;7.95;;
76593;SDS011;65482;50.240;14.302;2023-05-16T14:43:26;11.25;;;7.40;;
76593;SDS011;65482;50.240;14.302;2023-05-16T14:45:51;12.73;;;8.13;;
76593;SDS011;65482;50.240;14.302;2023-05-16T14:48:17;7.72;;;6.68;;
76593;SDS011;65482;50.240;14.302;2023-05-16T14:50:42;13.93;;;7.65;;
76593;SDS011;65482;50.240;14.302;2023-05-16T14:53:08;8.30;;;6.82;;
76593;SDS011;65482;50.240;14.302;2023-05-16T14:55:34;7.13;;;6.15;;
76593;SDS011;65482;50.240;14.302;2023-05-16T14:57:59;10.48;;;6.95;;
76593;SDS011;65482;50.240;14.302;2023-05-16T15:00:25;13.48;;;6.75;;
76593;SDS011;65482;50.240;14.302;2023-05-16T15:02:51;8.43;;;6.25;;
76593;SDS011;65482;50.240;14.302;2023-05-16T15:05:17;7.55;;;5.97;;
76593;SDS011;65482;50.240;14.302;2023-05-16T15:07:44;9.98;;;6.47;;
76593;SDS011;65482;50.240;14.302;2023-05-16T15:10:10;14.30;;;6.40;;
76593;SDS011;65482;50.240;14.302;2023-05-16T15:12:36;11.75;;;6.32;;
76593;SDS011;65482;50.240;14.302;2023-05-16T15:15:05;12.38;;;7.43;;
76593;SDS011;65482;50.240;14.302;2023-05-16T15:17:34;9.57;;;7.68;;
76593;SDS011;65482;50.240;14.302;2023-05-16T15:19:59;9.10;;;6.32;;
76593;SDS011;65482;50.240;14.302;2023-05-16T15:22:28;11.65;;;6.70;;
76593;SDS011;65482;50.240;14.302;2023-05-16T15:24:54;11.90;;;5.90;;
76593;SDS011;65482;50.240;14.302;2023-05-16T15:27:20;11.82;;;6.40;;
76593;SDS011;65482;50.240;14.302;2023-05-16T15:29:46;6.70;;;5.82;;
76593;SDS011;65482;50.240;14.302;2023-05-16T15:32:11;11.55;;;6.57;;
76593;SDS011;65482;50.240;14.302;2023-05-16T15:34:37;13.02;;;6.63;;
76593;SDS011;65482;50.240;14.302;2023-05-16T15:37:03;15.10;;;6.10;;
76593;SDS011;65482;50.240;14.302;2023-05-16T15:39:29;11.15;;;6.57;;
76593;SDS011;65482;50.240;14.302;2023-05-16T15:41:54;8.88;;;5.95;;
76593;SDS011;65482;50.240;14.302;2023-05-16T15:44:20;13.18;;;7.50;;
76593;SDS011;65482;50.240;14.302;2023-05-16T15:46:46;8.30;;;6.68;;
76593;SDS011;65482;50.240;14.302;2023-05-16T15:49:12;8.48;;;6.35;;
76593;SDS011;65482;50.240;14.302;2023-05-16T15:51:37;11.32;;;7.20;;
76593;SDS011;65482;50.240;14.302;2023-05-16T15:54:03;8.05;;;6.25;;
76593;SDS011;65482;50.240;14.302;2023-05-16T15:56:28;9.60;;;6.25;;
76593;SDS011;65482;50.240;14.302;2023-05-16T15:58:54;10.07;;;6.45;;
76593;SDS011;65482;50.240;14.302;2023-05-16T16:01:20;8.57;;;6.20;;
76593;SDS011;65482;50.240;14.302;2023-05-16T16:03:46;11.68;;;6.07;;
76593;SDS011;65482;50.240;14.302;2023-05-16T16:06:12;8.85;;;7.28;;
76593;SDS011;65482;50.240;14.302;2023-05-16T16:08:38;11.05;;;6.53;;
76593;SDS011;65482;50.240;14.302;2023-05-16T16:11:03;6.80;;;5.60;;
76593;SDS011;65482;50.240;14.302;2023-05-16T16:13:29;7.00;;;6.15;;
76593;SDS011;65482;50.240;14.302;2023-05-16T16:15:55;7.60;;;6.53;;
76593;SDS011;65482;50.240;14.302;2023-05-16T16:18:21;7.75;;;5.60;;
76593;SDS011;65482;50.240;14.302;2023-05-16T16:20:47;8.32;;;6.13;;
76593;SDS011;65482;50.240;14.302;2023-05-16T16:23:12;10.05;;;5.95;;
76593;SDS011;65482;50.240;14.302;2023-05-16T16:25:38;9.00;;;5.95;;
76593;SDS011;65482;50.240;14.302;2023-05-16T16:28:04;8.90;;;6.30;;
76593;SDS011;65482;50.240;14.302;2023-05-16T16:30:30;7.35;;;6.43;;
76593;SDS011;65482;50.240;14.302;2023-05-16T16:32:56;8.57;;;6.25;;
76593;SDS011;65482;50.240;14.302;2023-05-16T16:35:21;8.90;;;5.70;;
76593;SDS011;65482;50.240;14.302;2023-05-16T16:37:53;8.90;;;6.10;;
76593;SDS011;65482;50.240;14.302;2023-05-16T16:40:18;8.18;;;5.60;;
76593;SDS011;65482;50.240;14.302;2023-05-16T16:42:44;9.90;;;6.03;;
76593;SDS011;65482;50.240;14.302;2023-05-16T16:45:10;8.07;;;5.47;;
76593;SDS011;65482;50.240;14.302;2023-05-16T16:47:36;6.35;;;5.50;;
76593;SDS011;65482;50.240;14.302;2023-05-16T16:50:04;8.65;;;5.28;;
76593;SDS011;65482;50.240;14.302;2023-05-16T16:52:30;7.60;;;5.18;;
76593;SDS011;65482;50.240;14.302;2023-05-16T16:54:55;7.18;;;5.25;;
76593;SDS011;65482;50.240;14.302;2023-05-16T16:57:21;7.05;;;5.03;;
76593;SDS011;65482;50.240;14.302;2023-05-16T16:59:46;8.18;;;5.32;;
76593;SDS011;65482;50.240;14.302;2023-05-16T17:02:13;7.63;;;4.97;;
76593;SDS011;65482;50.240;14.302;2023-05-16T17:04:39;8.30;;;5.25;;
76593;SDS011;65482;50.240;14.302;2023-05-16T17:07:05;7.25;;;5.32;;
76593;SDS011;65482;50.240;14.302;2023-05-16T17:09:31;6.88;;;5.40;;
76593;SDS011;65482;50.240;14.302;2023-05-16T17:11:58;9.70;;;5.13;;
76593;SDS011;65482;50.240;14.302;2023-05-16T17:14:28;6.20;;;4.95;;
76593;SDS011;65482;50.240;14.302;2023-05-16T17:16:54;7.05;;;5.20;;
76593;SDS011;65482;50.240;14.302;2023-05-16T17:19:19;9.57;;;5.25;;
76593;SDS011;65482;50.240;14.302;2023-05-16T17:21:45;6.60;;;5.07;;
76593;SDS011;65482;50.240;14.302;2023-05-16T17:24:11;8.18;;;4.55;;
76593;SDS011;65482;50.240;14.302;2023-05-16T17:26:37;7.35;;;4.57;;
76593;SDS011;65482;50.240;14.302;2023-05-16T17:29:03;6.72;;;4.40;;
76593;SDS011;65482;50.240;14.302;2023-05-16T17:31:30;9.60;;;4.53;;
76593;SDS011;65482;50.240;14.302;2023-05-16T17:33:55;11.95;;;4.70;;
76593;SDS011;65482;50.240;14.302;2023-05-16T17:36:21;11.25;;;4.40;;
76593;SDS011;65482;50.240;14.302;2023-05-16T17:38:47;6.47;;;4.20;;
76593;SDS011;65482;50.240;14.302;2023-05-16T17:41:16;8.93;;;4.78;;
76593;SDS011;65482;50.240;14.302;2023-05-16T17:43:45;10.10;;;4.50;;
76593;SDS011;65482;50.240;14.302;2023-05-16T17:46:11;7.15;;;4.60;;
76593;SDS011;65482;50.240;14.302;2023-05-16T17:48:37;9.15;;;4.15;;
76593;SDS011;65482;50.240;14.302;2023-05-16T17:51:02;7.40;;;3.65;;
76593;SDS011;65482;50.240;14.302;2023-05-16T17:53:28;9.25;;;4.30;;
76593;SDS011;65482;50.240;14.302;2023-05-16T17:55:54;8.35;;;4.45;;
76593;SDS011;65482;50.240;14.302;2023-05-16T17:58:20;10.20;;;4.20;;
76593;SDS011;65482;50.240;14.302;2023-05-16T18:00:46;6.80;;;4.00;;
76593;SDS011;65482;50.240;14.302;2023-05-16T18:03:12;9.85;;;4.55;;
76593;SDS011;65482;50.240;14.302;2023-05-16T18:05:39;9.20;;;4.10;;
76593;SDS011;65482;50.240;14.302;2023-05-16T18:08:04;6.43;;;3.88;;
76593;SDS011;65482;50.240;14.302;2023-05-16T18:10:30;7.60;;;3.80;;
76593;SDS011;65482;50.240;14.302;2023-05-16T18:12:57;5.93;;;3.80;;
76593;SDS011;65482;50.240;14.302;2023-05-16T18:15:23;7.07;;;3.28;;
76593;SDS011;65482;50.240;14.302;2023-05-16T18:17:48;5.85;;;3.17;;
76593;SDS011;65482;50.240;14.302;2023-05-16T18:20:14;6.60;;;3.15;;
76593;SDS011;65482;50.240;14.302;2023-05-16T18:22:40;6.22;;;3.40;;
76593;SDS011;65482;50.240;14.302;2023-05-16T18:25:07;5.07;;;3.10;;
76593;SDS011;65482;50.240;14.302;2023-05-16T18:27:34;4.65;;;3.05;;
76593;SDS011;65482;50.240;14.302;2023-05-16T18:30:01;6.70;;;2.83;;
76593;SDS011;65482;50.240;14.302;2023-05-16T18:32:28;7.30;;;2.90;;
76593;SDS011;65482;50.240;14.302;2023-05-16T18:34:54;7.47;;;3.30;;
76593;SDS011;65482;50.240;14.302;2023-05-16T18:37:20;8.63;;;3.50;;
76593;SDS011;65482;50.240;14.302;2023-05-16T18:39:45;6.85;;;3.33;;
76593;SDS011;65482;50.240;14.302;2023-05-16T18:42:14;7.97;;;3.30;;
76593;SDS011;65482;50.240;14.302;2023-05-16T18:44:43;6.07;;;3.00;;
76593;SDS011;65482;50.240;14.302;2023-05-16T18:47:09;6.40;;;2.97;;
76593;SDS011;65482;50.240;14.302;2023-05-16T18:49:35;8.25;;;3.50;;
76593;SDS011;65482;50.240;14.302;2023-05-16T18:52:07;8.68;;;3.13;;
76593;SDS011;65482;50.240;14.302;2023-05-16T18:54:34;4.78;;;3.15;;
76593;SDS011;65482;50.240;14.302;2023-05-16T18:57:00;6.97;;;3.13;;
76593;SDS011;65482;50.240;14.302;2023-05-16T18:59:26;5.65;;;2.75;;
76593;SDS011;65482;50.240;14.302;2023-05-16T19:01:51;7.10;;;2.90;;
76593;SDS011;65482;50.240;14.302;2023-05-16T19:04:17;8.10;;;3.20;;
76593;SDS011;65482;50.240;14.302;2023-05-16T19:06:43;5.13;;;2.95;;
76593;SDS011;65482;50.240;14.302;2023-05-16T19:09:08;7.22;;;2.80;;
76593;SDS011;65482;50.240;14.302;2023-05-16T19:11:35;7.97;;;3.00;;
76593;SDS011;65482;50.240;14.302;2023-05-16T19:14:00;5.65;;;3.10;;
76593;SDS011;65482;50.240;14.302;2023-05-16T19:16:26;7.05;;;2.97;;
76593;SDS011;65482;50.240;14.302;2023-05-16T19:18:52;5.85;;;3.13;;
76593;SDS011;65482;50.240;14.302;2023-05-16T19:21:17;9.57;;;3.60;;
76593;SDS011;65482;50.240;14.302;2023-05-16T19:23:43;6.88;;;2.80;;
76593;SDS011;65482;50.240;14.302;2023-05-16T19:26:10;7.60;;;2.78;;
76593;SDS011;65482;50.240;14.302;2023-05-16T19:28:35;6.00;;;3.10;;
76593;SDS011;65482;50.240;14.302;2023-05-16T19:31:01;6.90;;;2.90;;
76593;SDS011;65482;50.240;14.302;2023-05-16T19:33:27;6.78;;;2.85;;
76593;SDS011;65482;50.240;14.302;2023-05-16T19:35:53;6.72;;;3.08;;
76593;SDS011;65482;50.240;14.302;2023-05-16T19:38:21;8.98;;;3.15;;
76593;SDS011;65482;50.240;14.302;2023-05-16T19:40:49;7.10;;;2.80;;
76593;SDS011;65482;50.240;14.302;2023-05-16T19:43:15;5.47;;;3.10;;
76593;SDS011;65482;50.240;14.302;2023-05-16T19:45:41;8.77;;;3.40;;
76593;SDS011;65482;50.240;14.302;2023-05-16T19:48:07;6.72;;;3.17;;
76593;SDS011;65482;50.240;14.302;2023-05-16T19:50:33;7.97;;;3.17;;
76593;SDS011;65482;50.240;14.302;2023-05-16T19:52:59;4.47;;;2.83;;
76593;SDS011;65482;50.240;14.302;2023-05-16T19:55:25;5.95;;;2.90;;
76593;SDS011;65482;50.240;14.302;2023-05-16T19:57:53;6.60;;;3.05;;
76593;SDS011;65482;50.240;14.302;2023-05-16T20:00:19;9.85;;;3.42;;
76593;SDS011;65482;50.240;14.302;2023-05-16T20:02:45;7.85;;;2.92;;
76593;SDS011;65482;50.240;14.302;2023-05-16T20:05:11;4.88;;;2.92;;
76593;SDS011;65482;50.240;14.302;2023-05-16T20:07:39;7.35;;;2.80;;
76593;SDS011;65482;50.240;14.302;2023-05-16T20:10:08;6.40;;;2.95;;
76593;SDS011;65482;50.240;14.302;2023-05-16T20:12:34;10.20;;;3.33;;
76593;SDS011;65482;50.240;14.302;2023-05-16T20:14:59;7.13;;;2.95;;
76593;SDS011;65482;50.240;14.302;2023-05-16T20:17:25;9.45;;;2.85;;
76593;SDS011;65482;50.240;14.302;2023-05-16T20:19:51;7.05;;;2.83;;
76593;SDS011;65482;50.240;14.302;2023-05-16T20:22:17;5.65;;;3.08;;
76593;SDS011;65482;50.240;14.302;2023-05-16T20:24:43;8.13;;;3.08;;
76593;SDS011;65482;50.240;14.302;2023-05-16T20:27:09;8.88;;;3.00;;
76593;SDS011;65482;50.240;14.302;2023-05-16T20:29:35;7.70;;;2.63;;
76593;SDS011;65482;50.240;14.302;2023-05-16T20:32:01;9.27;;;3.05;;
76593;SDS011;65482;50.240;14.302;2023-05-16T20:34:29;5.13;;;2.50;;
76593;SDS011;65482;50.240;14.302;2023-05-16T20:36:57;8.63;;;3.13;;
76593;SDS011;65482;50.240;14.302;2023-05-16T20:39:23;7.50;;;2.88;;
76593;SDS011;65482;50.240;14.302;2023-05-16T20:41:50;10.32;;;3.10;;
76593;SDS011;65482;50.240;14.302;2023-05-16T20:44:16;7.32;;;2.90;;
76593;SDS011;65482;50.240;14.302;2023-05-16T20:46:42;8.02;;;3.30;;
76593;SDS011;65482;50.240;14.302;2023-05-16T20:49:08;8.55;;;3.28;;
76593;SDS011;65482;50.240;14.302;2023-05-16T20:51:33;12.40;;;3.00;;
76593;SDS011;65482;50.240;14.302;2023-05-16T20:54:00;10.65;;;3.08;;
76593;SDS011;65482;50.240;14.302;2023-05-16T20:56:26;8.98;;;3.22;;
76593;SDS011;65482;50.240;14.302;2023-05-16T20:58:51;8.25;;;3.17;;
76593;SDS011;65482;50.240;14.302;2023-05-16T21:01:17;7.35;;;2.78;;
76593;SDS011;65482;50.240;14.302;2023-05-16T21:03:42;7.70;;;2.88;;
76593;SDS011;65482;50.240;14.302;2023-05-16T21:06:08;7.18;;;3.13;;
76593;SDS011;65482;50.240;14.302;2023-05-16T21:08:33;7.07;;;2.60;;
76593;SDS011;65482;50.240;14.302;2023-05-16T21:10:59;6.78;;;2.55;;
76593;SDS011;65482;50.240;14.302;2023-05-16T21:13:25;7.07;;;2.75;;
76593;SDS011;65482;50.240;14.302;2023-05-16T21:15:51;4.38;;;2.60;;
76593;SDS011;65482;50.240;14.302;2023-05-16T21:18:16;6.60;;;2.90;;
76593;SDS011;65482;50.240;14.302;2023-05-16T21:20:42;8.02;;;2.80;;
76593;SDS011;65482;50.240;14.302;2023-05-16T21:23:07;8.90;;;2.85;;
76593;SDS011;65482;50.240;14.302;2023-05-16T21:25:33;5.70;;;2.85;;
76593;SDS011;65482;50.240;14.302;2023-05-16T21:27:58;5.70;;;2.65;;
76593;SDS011;65482;50.240;14.302;2023-05-16T21:30:24;4.72;;;2.60;;